Time,TemperatureF,DewpointF,PressureIn,WindDirection,WindDirectionDegrees,WindSpeedMPH,WindSpeedGustMPH,Humidity,HourlyPrecipIn,Conditions,Clouds,dailyrainin,SoftwareType,DateUTC
2013-01-12 00:01:00,22.6,19.9,29.28,ESE,112,4.2,-999.0,89,-99.99,,,0.00,Acu-Link.com,2013-01-12 06:01:00,
2013-01-12 00:16:00,21.6,18.9,29.30,West,270,3.7,-999.0,89,-99.99,,,0.00,Acu-Link.com,2013-01-12 06:16:00,
2013-01-12 00:31:00,19.9,17.2,29.32,NNE,22,4.7,-999.0,89,-99.99,,,0.00,Acu-Link.com,2013-01-12 06:31:00,
2013-01-12 00:47:00,19.0,16.3,29.32,South,180,2.7,-999.0,89,-99.99,,,0.00,Acu-Link.com,2013-01-12 06:47:00,
2013-01-12 01:02:00,18.1,14.9,29.34,WSW,247,6.8,-999.0,87,-99.99,,,0.00,Acu-Link.com,2013-01-12 07:02:00,
2013-01-12 01:17:00,17.4,14.5,29.35,West,270,4.7,-999.0,88,-99.99,,,0.00,Acu-Link.com,2013-01-12 07:17:00,
2013-01-12 01:32:00,16.7,13.5,29.36,SSE,157,6.3,-999.0,87,-99.99,,,0.00,Acu-Link.com,2013-01-12 07:32:00,
2013-01-12 01:47:00,16.2,12.8,29.38,NNW,337,9.4,-999.0,86,-99.99,,,0.00,Acu-Link.com,2013-01-12 07:47:00,
2013-01-12 02:03:00,15.6,12.2,29.39,WSW,247,5.8,-999.0,86,-99.99,,,0.00,Acu-Link.com,2013-01-12 08:03:00,
2013-01-12 02:18:00,15.1,11.4,29.41,East,90,6.3,-999.0,85,-99.99,,,0.00,Acu-Link.com,2013-01-12 08:18:00,
2013-01-12 02:33:00,14.5,11.1,29.43,WSW,247,7.8,-999.0,86,-99.99,,,0.00,Acu-Link.com,2013-01-12 08:33:00,
2013-01-12 02:48:00,14.2,10.8,29.43,West,270,6.8,-999.0,86,-99.99,,,0.00,Acu-Link.com,2013-01-12 08:48:00,
2013-01-12 03:09:00,13.8,9.9,29.44,WSW,247,5.3,-999.0,84,-99.99,,,0.00,Acu-Link.com,2013-01-12 09:09:00,
2013-01-12 03:25:00,13.5,9.8,29.45,SW,225,5.3,-999.0,85,-99.99,,,0.00,Acu-Link.com,2013-01-12 09:25:00,
2013-01-12 03:40:00,13.1,9.2,29.47,SW,225,4.2,-999.0,84,-99.99,,,0.00,Acu-Link.com,2013-01-12 09:40:00,
2013-01-12 03:55:00,12.9,9.0,29.49,NNW,337,3.7,-999.0,84,-99.99,,,0.00,Acu-Link.com,2013-01-12 09:55:00,
2013-01-12 04:10:00,12.7,8.3,29.49,WNW,292,6.8,-999.0,82,-99.99,,,0.00,Acu-Link.com,2013-01-12 10:10:00,
2013-01-12 04:26:00,12.4,8.0,29.51,NNW,337,7.3,-999.0,82,-99.99,,,0.00,Acu-Link.com,2013-01-12 10:26:00,
2013-01-12 04:41:00,11.8,7.1,29.52,SSE,157,8.3,-999.0,81,-99.99,,,0.00,Acu-Link.com,2013-01-12 10:41:00,
2013-01-12 04:56:00,11.7,7.0,29.53,WNW,292,6.3,-999.0,81,-99.99,,,0.00,Acu-Link.com,2013-01-12 10:56:00,
2013-01-12 05:11:00,11.5,7.1,29.55,NW,315,7.3,-999.0,82,-99.99,,,0.00,Acu-Link.com,2013-01-12 11:11:00,
2013-01-12 05:26:00,11.3,6.6,29.57,SW,225,4.7,-999.0,81,-99.99,,,0.00,Acu-Link.com,2013-01-12 11:26:00,
2013-01-12 05:42:00,10.9,5.7,29.58,East,90,4.7,-999.0,79,-99.99,,,0.00,Acu-Link.com,2013-01-12 11:42:00,
2013-01-12 05:57:00,10.8,5.6,29.58,NE,45,5.3,-999.0,79,-99.99,,,0.00,Acu-Link.com,2013-01-12 11:57:00,
2013-01-12 06:12:00,10.2,5.6,29.59,NNW,337,8.9,-999.0,81,-99.99,,,0.00,Acu-Link.com,2013-01-12 12:12:00,
2013-01-12 06:27:00,9.9,5.3,29.61,West,270,4.2,-999.0,81,-99.99,,,0.00,Acu-Link.com,2013-01-12 12:27:00,
2013-01-12 06:43:00,9.7,5.6,29.62,NNE,22,7.3,-999.0,83,-99.99,,,0.00,Acu-Link.com,2013-01-12 12:43:00,
2013-01-12 06:58:00,9.1,4.2,29.63,SW,225,4.7,-999.0,80,-99.99,,,0.00,Acu-Link.com,2013-01-12 12:58:00,
2013-01-12 07:13:00,9.0,3.8,29.64,West,270,5.3,-999.0,79,-99.99,,,0.00,Acu-Link.com,2013-01-12 13:13:00,
2013-01-12 07:28:00,8.6,4.3,29.66,South,180,3.7,-999.0,82,-99.99,,,0.00,Acu-Link.com,2013-01-12 13:28:00,
2013-01-12 07:43:00,8.2,3.3,29.67,NNW,337,4.2,-999.0,80,-99.99,,,0.00,Acu-Link.com,2013-01-12 13:43:00,
2013-01-12 07:59:00,7.7,2.8,29.68,North,0,3.7,-999.0,80,-99.99,,,0.00,Acu-Link.com,2013-01-12 13:59:00,
2013-01-12 08:14:00,7.0,1.9,29.69,South,180,8.3,-999.0,79,-99.99,,,0.00,Acu-Link.com,2013-01-12 14:14:00,
2013-01-12 08:29:00,7.0,1.9,29.71,ENE,67,3.2,-999.0,79,-99.99,,,0.00,Acu-Link.com,2013-01-12 14:29:00,
2013-01-12 08:44:00,7.2,2.1,29.72,WSW,247,3.2,-999.0,79,-99.99,,,0.00,Acu-Link.com,2013-01-12 14:44:00,
2013-01-12 08:59:00,7.3,1.9,29.73,NW,315,3.2,-999.0,78,-99.99,,,0.00,Acu-Link.com,2013-01-12 14:59:00,
2013-01-12 09:15:00,7.0,2.2,29.74,South,180,6.3,-999.0,80,-99.99,,,0.00,Acu-Link.com,2013-01-12 15:15:00,
2013-01-12 09:33:00,7.3,1.1,29.75,NW,315,2.7,-999.0,75,-99.99,,,0.00,Acu-Link.com,2013-01-12 15:33:00,
2013-01-12 09:50:00,7.7,1.2,29.75,SSW,202,4.2,-999.0,74,-99.99,,,0.00,Acu-Link.com,2013-01-12 15:50:00,
2013-01-12 10:08:00,7.9,1.4,29.76,WNW,292,5.3,-999.0,74,-99.99,,,0.00,Acu-Link.com,2013-01-12 16:08:00,
2013-01-12 10:23:00,8.2,1.1,29.76,West,270,3.7,-999.0,72,-99.99,,,0.00,Acu-Link.com,2013-01-12 16:23:00,
2013-01-12 10:40:00,7.9,1.1,29.78,NW,315,6.3,-999.0,73,-99.99,,,0.00,Acu-Link.com,2013-01-12 16:40:00,
2013-01-12 10:55:00,9.0,1.8,29.80,NE,45,2.2,-999.0,72,-99.99,,,0.00,Acu-Link.com,2013-01-12 16:55:00,
2013-01-12 11:11:00,7.0,0.2,29.82,WSW,247,6.3,-999.0,73,-99.99,,,0.00,Acu-Link.com,2013-01-12 17:11:00,
2013-01-12 11:26:00,7.5,0.1,29.82,West,270,4.2,-999.0,71,-99.99,,,0.00,Acu-Link.com,2013-01-12 17:26:00,
2013-01-12 11:41:00,7.9,0.5,29.82,NNW,337,4.7,-999.0,71,-99.99,,,0.00,Acu-Link.com,2013-01-12 17:41:00,
2013-01-12 11:57:00,8.4,0.7,29.82,SW,225,5.8,-999.0,70,-99.99,,,0.00,Acu-Link.com,2013-01-12 17:57:00,
2013-01-12 12:12:00,8.4,1.3,29.82,WNW,292,4.7,-999.0,72,-99.99,,,0.00,Acu-Link.com,2013-01-12 18:12:00,
2013-01-12 12:27:00,7.9,1.1,29.82,NNE,22,5.8,-999.0,73,-99.99,,,0.00,Acu-Link.com,2013-01-12 18:27:00,
2013-01-12 12:42:00,7.5,-0.2,29.81,SSW,202,5.3,-999.0,70,-99.99,,,0.00,Acu-Link.com,2013-01-12 18:42:00,
2013-01-12 12:58:00,7.3,-0.1,29.82,SSE,157,8.3,-999.0,71,-99.99,,,0.00,Acu-Link.com,2013-01-12 18:58:00,
2013-01-12 13:13:00,8.2,0.5,29.82,ENE,67,5.3,-999.0,70,-99.99,,,0.00,Acu-Link.com,2013-01-12 19:13:00,
2013-01-12 13:28:00,9.5,2.0,29.83,North,0,4.7,-999.0,71,-99.99,,,0.00,Acu-Link.com,2013-01-12 19:28:00,
2013-01-12 13:43:00,8.6,1.2,29.85,ESE,112,4.7,-999.0,71,-99.99,,,0.00,Acu-Link.com,2013-01-12 19:43:00,
2013-01-12 13:58:00,8.6,0.9,29.85,SSW,202,6.3,-999.0,70,-99.99,,,0.00,Acu-Link.com,2013-01-12 19:58:00,
2013-01-12 14:14:00,7.5,0.1,29.85,ESE,112,4.7,-999.0,71,-99.99,,,0.00,Acu-Link.com,2013-01-12 20:14:00,
2013-01-12 14:29:00,7.7,0.0,29.86,SW,225,3.2,-999.0,70,-99.99,,,0.00,Acu-Link.com,2013-01-12 20:29:00,
2013-01-12 14:44:00,7.9,-0.1,29.86,East,90,2.7,-999.0,69,-99.99,,,0.00,Acu-Link.com,2013-01-12 20:44:00,
2013-01-12 14:59:00,6.8,-1.2,29.87,SE,135,2.7,-999.0,69,-99.99,,,0.00,Acu-Link.com,2013-01-12 20:59:00,
2013-01-12 15:14:00,6.8,-0.9,29.88,ESE,112,3.2,-999.0,70,-99.99,,,0.00,Acu-Link.com,2013-01-12 21:14:00,
2013-01-12 15:30:00,6.1,-1.9,29.89,WNW,292,5.3,-999.0,69,-99.99,,,0.00,Acu-Link.com,2013-01-12 21:30:00,
2013-01-12 15:45:00,5.7,-1.6,29.89,WSW,247,4.2,-999.0,71,-99.99,,,0.00,Acu-Link.com,2013-01-12 21:45:00,
2013-01-12 16:00:00,5.9,-1.7,29.90,West,270,2.7,-999.0,70,-99.99,,,0.00,Acu-Link.com,2013-01-12 22:00:00,
2013-01-12 16:15:00,5.7,-1.6,29.90,NW,315,2.7,-999.0,71,-99.99,,,0.00,Acu-Link.com,2013-01-12 22:15:00,
2013-01-12 16:31:00,5.0,-1.7,29.90,ESE,112,3.7,-999.0,73,-99.99,,,0.00,Acu-Link.com,2013-01-12 22:31:00,
2013-01-12 16:46:00,4.5,-2.2,29.89,ESE,112,2.7,-999.0,73,-99.99,,,0.00,Acu-Link.com,2013-01-12 22:46:00,
2013-01-12 17:01:00,3.7,-3.0,29.89,North,0,1.7,-999.0,73,-99.99,,,0.00,Acu-Link.com,2013-01-12 23:01:00,
2013-01-12 17:16:00,3.2,-3.2,29.91,SW,225,4.2,-999.0,74,-99.99,,,0.00,Acu-Link.com,2013-01-12 23:16:00,
2013-01-12 17:31:00,3.0,-3.4,29.93,NNW,337,4.2,-999.0,74,-99.99,,,0.00,Acu-Link.com,2013-01-12 23:31:00,
2013-01-12 17:47:00,2.7,-3.7,29.95,NNW,337,2.2,-999.0,74,-99.99,,,0.00,Acu-Link.com,2013-01-12 23:47:00,
2013-01-12 18:02:00,2.1,-4.0,29.95,West,270,1.7,-999.0,75,-99.99,,,0.00,Acu-Link.com,2013-01-13 00:02:00,
2013-01-12 18:17:00,1.8,-4.3,29.94,East,90,2.7,-999.0,75,-99.99,,,0.00,Acu-Link.com,2013-01-13 00:17:00,
2013-01-12 18:32:00,1.6,-4.5,29.94,NNW,337,1.7,-999.0,75,-99.99,,,0.00,Acu-Link.com,2013-01-13 00:32:00,
2013-01-12 18:47:00,1.2,-4.6,29.94,SSW,202,2.2,-999.0,76,-99.99,,,0.00,Acu-Link.com,2013-01-13 00:47:00,
2013-01-12 19:03:00,1.0,-4.8,29.94,West,270,2.2,-999.0,76,-99.99,,,0.00,Acu-Link.com,2013-01-13 01:03:00,
2013-01-12 19:18:00,0.9,-4.6,29.95,NNE,22,0.0,-999.0,77,-99.99,,,0.00,Acu-Link.com,2013-01-13 01:18:00,
2013-01-12 19:33:00,0.7,-4.8,29.97,SSE,157,1.1,-999.0,77,-99.99,,,0.00,Acu-Link.com,2013-01-13 01:33:00,
2013-01-12 19:48:00,0.5,-4.7,29.98,WSW,247,1.1,-999.0,78,-99.99,,,0.00,Acu-Link.com,2013-01-13 01:48:00,
2013-01-12 20:03:00,0.5,-4.7,29.97,NW,315,1.1,-999.0,78,-99.99,,,0.00,Acu-Link.com,2013-01-13 02:03:00,
2013-01-12 20:19:00,0.5,-4.7,29.99,SW,225,2.7,-999.0,78,-99.99,,,0.00,Acu-Link.com,2013-01-13 02:19:00,
2013-01-12 20:34:00,0.5,-4.7,29.98,NNE,22,1.7,-999.0,78,-99.99,,,0.00,Acu-Link.com,2013-01-13 02:34:00,
2013-01-12 20:49:00,0.3,-4.9,29.97,ESE,112,3.2,-999.0,78,-99.99,,,0.00,Acu-Link.com,2013-01-13 02:49:00,
2013-01-12 21:04:00,0.1,-5.1,29.97,ESE,112,2.7,-999.0,78,-99.99,,,0.00,Acu-Link.com,2013-01-13 03:04:00,
2013-01-12 21:20:00,0.1,-5.1,29.98,East,90,1.7,-999.0,78,-99.99,,,0.00,Acu-Link.com,2013-01-13 03:20:00,
2013-01-12 21:35:00,0.3,-4.9,29.98,East,90,1.7,-999.0,78,-99.99,,,0.00,Acu-Link.com,2013-01-13 03:35:00,
2013-01-12 21:50:00,0.9,-4.3,29.98,ESE,112,2.7,-999.0,78,-99.99,,,0.00,Acu-Link.com,2013-01-13 03:50:00,
2013-01-12 22:05:00,1.2,-4.0,29.98,ENE,67,2.7,-999.0,78,-99.99,,,0.00,Acu-Link.com,2013-01-13 04:05:00,
2013-01-12 22:21:00,1.0,-5.0,29.99,North,0,2.7,-999.0,75,-99.99,,,0.00,Acu-Link.com,2013-01-13 04:21:00,
2013-01-12 22:36:00,1.0,-4.8,29.99,ESE,112,2.2,-999.0,76,-99.99,,,0.00,Acu-Link.com,2013-01-13 04:36:00,
2013-01-12 22:51:00,1.0,-4.8,29.98,WNW,292,1.1,-999.0,76,-99.99,,,0.00,Acu-Link.com,2013-01-13 04:51:00,
2013-01-12 23:06:00,1.0,-4.5,29.98,West,270,2.2,-999.0,77,-99.99,,,0.00,Acu-Link.com,2013-01-13 05:06:00,
2013-01-12 23:22:00,0.9,-4.6,29.96,WSW,247,3.2,-999.0,77,-99.99,,,0.00,Acu-Link.com,2013-01-13 05:22:00,
2013-01-12 23:37:00,0.7,-4.8,29.98,NNE,22,1.1,-999.0,77,-99.99,,,0.00,Acu-Link.com,2013-01-13 05:37:00,
2013-01-12 23:52:00,0.5,-5.0,29.98,NNW,337,1.7,-999.0,77,-99.99,,,0.00,Acu-Link.com,2013-01-13 05:52:00,